createdAt,value
2018-10-03T00:01:30.831Z,46.10
2018-10-03T00:04:01.571Z,46.10
2018-10-03T00:06:32.438Z,46.10
2018-10-03T00:09:01.838Z,46.10
2018-10-03T00:11:31.210Z,46.10
2018-10-03T00:14:00.604Z,46.10
2018-10-03T00:16:30.241Z,46.10
2018-10-03T00:18:59.346Z,46.10
2018-10-03T00:21:28.480Z,46.30
2018-10-03T00:23:58.380Z,46.10
2018-10-03T00:26:27.491Z,46.10
2018-10-03T00:28:57.087Z,46.10
2018-10-03T00:31:26.623Z,46.10
2018-10-03T00:33:56.478Z,46.10
2018-10-03T00:36:26.169Z,46.10
2018-10-03T00:38:55.864Z,46.10
2018-10-03T00:41:25.470Z,46.10
2018-10-03T00:43:54.590Z,46.10
2018-10-03T00:46:23.838Z,46.10
2018-10-03T00:48:53.108Z,46.10
2018-10-03T00:51:22.879Z,46.10
2018-10-03T00:53:52.582Z,46.10
2018-10-03T00:56:22.267Z,46.20
2018-10-03T00:58:52.537Z,46.10
2018-10-03T01:01:21.940Z,46.10
2018-10-03T01:03:51.637Z,46.10
2018-10-03T01:06:22.282Z,46.10
2018-10-03T01:08:52.721Z,46.10
2018-10-03T01:11:22.047Z,46.10
2018-10-03T01:13:52.384Z,46.10
2018-10-03T01:16:21.527Z,46.10
2018-10-03T01:18:51.185Z,46.10
2018-10-03T01:21:20.951Z,46.10
2018-10-03T01:23:50.740Z,46.10
2018-10-03T01:26:19.881Z,46.20
2018-10-03T01:28:48.986Z,46.20
2018-10-03T01:31:19.041Z,46.20
2018-10-03T01:33:49.578Z,46.20
2018-10-03T01:36:18.703Z,46.10
2018-10-03T01:38:47.950Z,46.20
2018-10-03T01:41:17.566Z,46.20
2018-10-03T01:43:47.789Z,46.20
2018-10-03T01:46:17.837Z,46.30
2018-10-03T01:48:47.527Z,46.30
2018-10-03T01:51:17.409Z,46.30
2018-10-03T01:53:47.251Z,46.20
2018-10-03T01:56:16.855Z,46.30
2018-10-03T01:58:45.964Z,46.20
2018-10-03T02:01:15.162Z,46.30
2018-10-03T02:03:44.299Z,46.30
2018-10-03T02:06:14.058Z,46.20
2018-10-03T02:08:44.572Z,46.20
2018-10-03T02:11:13.793Z,46.40
2018-10-03T02:13:43.202Z,46.30
2018-10-03T02:16:12.344Z,46.30
2018-10-03T02:18:42.474Z,46.30
2018-10-03T02:21:11.606Z,46.20
2018-10-03T02:23:41.546Z,46.30
2018-10-03T02:26:11.268Z,46.30
2018-10-03T02:28:40.415Z,46.30
2018-10-03T02:31:09.857Z,46.30
2018-10-03T02:33:39.737Z,46.40
2018-10-03T02:36:10.318Z,46.20
2018-10-03T02:38:40.114Z,46.30
2018-10-03T02:41:10.767Z,46.40
2018-10-03T02:43:39.891Z,46.30
2018-10-03T02:46:09.001Z,46.30
2018-10-03T02:48:38.126Z,46.30
2018-10-03T02:51:07.632Z,46.30
2018-10-03T02:53:37.259Z,46.40
2018-10-03T02:56:06.625Z,46.30
2018-10-03T02:58:36.545Z,46.30
2018-10-03T03:01:05.944Z,46.30
2018-10-03T03:03:35.041Z,46.30
2018-10-03T03:06:04.558Z,46.40
2018-10-03T03:08:34.820Z,46.50
2018-10-03T03:11:03.871Z,46.40
2018-10-03T03:13:32.969Z,46.40
2018-10-03T03:16:02.770Z,46.40
2018-10-03T03:18:32.502Z,46.40
2018-10-03T03:21:01.690Z,46.40
2018-10-03T03:23:31.126Z,46.40
2018-10-03T03:26:01.001Z,46.50
2018-10-03T03:28:30.949Z,46.40
2018-10-03T03:31:00.625Z,46.50
2018-10-03T03:33:29.907Z,46.50
2018-10-03T03:35:59.066Z,46.50
2018-10-03T03:38:28.214Z,46.50
2018-10-03T03:40:58.199Z,46.40
2018-10-03T03:43:28.102Z,46.40
2018-10-03T03:45:58.136Z,46.50
2018-10-03T03:48:27.243Z,46.50
2018-10-03T03:50:56.415Z,46.50
2018-10-03T03:53:26.064Z,46.50
2018-10-03T03:55:55.132Z,46.50
2018-10-03T03:58:24.216Z,46.50
2018-10-03T04:00:53.362Z,46.40
2018-10-03T04:03:22.473Z,46.50
2018-10-03T04:05:52.320Z,46.50
2018-10-03T04:08:22.257Z,46.50
2018-10-03T04:10:51.949Z,46.60
2018-10-03T04:13:21.995Z,46.50
2018-10-03T04:15:51.754Z,46.60
2018-10-03T04:18:20.973Z,46.50
2018-10-03T04:20:51.823Z,46.50
2018-10-03T04:23:22.030Z,46.50
2018-10-03T04:25:52.908Z,46.50
2018-10-03T04:28:22.721Z,46.60
2018-10-03T04:30:52.231Z,46.60
2018-10-03T04:33:21.314Z,46.60
2018-10-03T04:35:51.162Z,46.60
2018-10-03T04:38:20.285Z,46.60
2018-10-03T04:40:50.885Z,46.60
2018-10-03T04:43:19.981Z,46.60
2018-10-03T04:45:49.102Z,46.60
2018-10-03T04:48:18.237Z,46.60
2018-10-03T04:50:47.347Z,46.60
2018-10-03T04:53:17.241Z,46.60
2018-10-03T04:55:46.590Z,47.20
2018-10-03T04:58:15.785Z,46.60
2018-10-03T05:00:45.739Z,46.60
2018-10-03T05:03:15.369Z,46.70
2018-10-03T05:05:45.686Z,46.70
2018-10-03T05:08:15.564Z,46.60
2018-10-03T05:10:44.629Z,46.60
2018-10-03T05:13:14.815Z,46.60
2018-10-03T05:15:43.945Z,47.20
2018-10-03T05:18:13.212Z,46.60
2018-10-03T05:20:43.079Z,46.70
2018-10-03T05:23:12.756Z,46.80
2018-10-03T05:25:41.891Z,46.70
2018-10-03T05:28:12.894Z,47.20
2018-10-03T05:30:42.732Z,46.70
2018-10-03T05:33:12.287Z,46.70
2018-10-03T05:35:41.322Z,46.80
2018-10-03T05:38:10.574Z,46.70
2018-10-03T05:40:40.479Z,46.60
2018-10-03T05:43:09.552Z,46.70
2018-10-03T05:45:38.686Z,46.70
2018-10-03T05:48:07.815Z,46.70
2018-10-03T05:50:36.938Z,46.80
2018-10-03T05:53:07.574Z,46.70
2018-10-03T05:55:36.666Z,46.80
2018-10-03T05:58:06.578Z,46.80
2018-10-03T06:00:37.125Z,46.80
2018-10-03T06:03:06.391Z,46.80
2018-10-03T06:05:36.654Z,46.70
2018-10-03T06:08:07.139Z,47.00
2018-10-03T06:10:37.605Z,46.80
2018-10-03T06:13:06.904Z,46.80
2018-10-03T06:15:36.804Z,46.80
2018-10-03T06:18:06.056Z,46.80
2018-10-03T06:20:36.058Z,46.80
2018-10-03T06:23:05.841Z,46.80
2018-10-03T06:25:34.961Z,46.90
2018-10-03T06:28:04.145Z,46.80
2018-10-03T06:30:33.333Z,46.80
2018-10-03T06:33:02.478Z,46.90
2018-10-03T06:35:31.803Z,46.80
2018-10-03T06:38:01.201Z,46.80
2018-10-03T06:40:30.359Z,46.80
2018-10-03T06:42:59.408Z,46.90
2018-10-03T06:45:28.697Z,46.80
2018-10-03T06:47:59.327Z,46.80
2018-10-03T06:50:28.406Z,46.80
2018-10-03T06:52:57.961Z,47.40
2018-10-03T06:55:27.049Z,46.80
2018-10-03T06:57:57.117Z,46.90
2018-10-03T07:00:26.682Z,46.90
2018-10-03T07:02:55.750Z,46.90
2018-10-03T07:05:26.587Z,46.90
2018-10-03T07:07:56.280Z,46.90
2018-10-03T07:10:26.470Z,46.90
2018-10-03T07:12:55.605Z,47.00
2018-10-03T07:15:25.686Z,47.00
2018-10-03T07:17:54.824Z,46.90
2018-10-03T07:20:23.929Z,46.90
2018-10-03T07:22:53.680Z,46.90
2018-10-03T07:25:22.770Z,47.50
2018-10-03T07:27:51.903Z,46.90
2018-10-03T07:30:21.082Z,46.80
2018-10-03T07:32:50.217Z,46.90
2018-10-03T07:35:19.406Z,46.90
2018-10-03T07:37:49.619Z,46.90
2018-10-03T07:40:19.420Z,46.90
2018-10-03T07:42:49.468Z,47.00
2018-10-03T07:45:18.693Z,46.90
2018-10-03T07:47:47.762Z,47.20
2018-10-03T07:50:16.901Z,47.10
2018-10-03T07:54:10.827Z,47.30
2018-10-03T07:56:39.983Z,47.60
2018-10-03T07:59:09.122Z,47.60
2018-10-03T08:01:38.856Z,47.60
2018-10-03T08:04:08.369Z,47.30
2018-10-03T08:06:38.457Z,47.10
2018-10-03T08:09:09.730Z,46.90
2018-10-03T08:11:40.181Z,47.20
2018-10-03T08:14:09.270Z,47.20
2018-10-03T08:16:38.399Z,46.80
2018-10-03T08:19:07.875Z,46.70
2018-10-03T08:21:37.279Z,46.80
2018-10-03T08:24:08.043Z,47.00
2018-10-03T08:26:37.857Z,46.90
2018-10-03T08:29:06.995Z,46.70
2018-10-03T08:31:36.070Z,46.70
2018-10-03T08:34:05.163Z,46.90
2018-10-03T08:36:34.285Z,46.70
2018-10-03T08:39:05.735Z,47.00
2018-10-03T08:41:35.108Z,46.70
2018-10-03T08:44:04.836Z,46.80
2018-10-03T08:46:34.086Z,47.10
2018-10-03T08:49:03.991Z,46.80
2018-10-03T08:51:33.246Z,46.50
2018-10-03T08:54:03.359Z,46.40
2018-10-03T08:56:32.550Z,46.40
2018-10-03T08:59:01.762Z,46.30
2018-10-03T09:01:31.748Z,46.20
2018-10-03T09:04:00.864Z,46.20
2018-10-03T09:06:30.654Z,46.20
2018-10-03T09:09:00.648Z,46.40
2018-10-03T09:11:29.715Z,46.10
2018-10-03T09:13:58.895Z,46.10
2018-10-03T09:16:29.048Z,46.10
2018-10-03T09:18:58.692Z,46.00
2018-10-03T09:21:27.850Z,46.00
2018-10-03T09:23:57.443Z,45.90
2018-10-03T09:26:26.603Z,45.90
2018-10-03T09:28:55.693Z,45.90
2018-10-03T09:31:24.870Z,45.90
2018-10-03T09:33:55.231Z,45.80
2018-10-03T09:36:24.334Z,45.80
2018-10-03T09:38:53.504Z,45.80
2018-10-03T09:41:23.232Z,45.80
2018-10-03T09:43:52.345Z,45.80
2018-10-03T09:46:21.434Z,45.80
2018-10-03T09:48:50.574Z,45.80
2018-10-03T09:51:20.142Z,45.80
2018-10-03T09:53:49.940Z,45.80
2018-10-03T09:56:19.310Z,45.80
2018-10-03T09:58:48.427Z,45.90
2018-10-03T10:01:24.071Z,45.80
2018-10-03T10:03:53.788Z,45.80
2018-10-03T10:06:23.636Z,45.80
2018-10-03T10:08:53.457Z,45.80
2018-10-03T10:11:22.667Z,45.80
2018-10-03T10:13:52.279Z,45.80
2018-10-03T10:16:21.369Z,45.80
2018-10-03T10:18:50.549Z,45.80
2018-10-03T10:21:20.383Z,45.80
2018-10-03T10:23:50.137Z,45.70
2018-10-03T10:26:19.251Z,45.80
2018-10-03T10:28:49.448Z,45.80
2018-10-03T10:31:18.642Z,45.80
2018-10-03T10:33:48.159Z,45.80
2018-10-03T10:36:17.303Z,45.80
2018-10-03T10:38:47.479Z,45.90
2018-10-03T10:41:16.747Z,45.90
2018-10-03T10:43:45.647Z,45.90
2018-10-03T10:46:14.759Z,45.90
2018-10-03T10:48:45.065Z,46.00
2018-10-03T10:51:14.233Z,45.90
2018-10-03T10:53:44.475Z,46.00
2018-10-03T10:56:13.534Z,45.90
2018-10-03T10:58:43.303Z,46.00
2018-10-03T11:01:13.544Z,45.90
2018-10-03T11:03:42.651Z,46.00
2018-10-03T11:06:12.123Z,45.90
2018-10-03T11:08:42.401Z,46.00
2018-10-03T11:11:11.957Z,46.00
2018-10-03T11:13:41.066Z,46.00
2018-10-03T11:16:10.652Z,45.90
2018-10-03T11:18:39.752Z,46.60
2018-10-03T11:21:08.835Z,45.90
2018-10-03T11:23:39.327Z,46.00
2018-10-03T11:26:08.896Z,45.90
2018-10-03T11:28:38.003Z,46.00
2018-10-03T11:31:07.726Z,45.90
2018-10-03T11:33:36.805Z,45.80
2018-10-03T11:36:05.955Z,45.80
2018-10-03T11:38:35.121Z,45.80
2018-10-03T11:41:04.329Z,45.80
2018-10-03T11:43:33.871Z,46.10
2018-10-03T11:46:03.041Z,45.30
2018-10-03T11:48:33.159Z,45.90
2018-10-03T11:51:02.241Z,45.80
2018-10-03T11:53:31.867Z,45.80
2018-10-03T11:56:01.742Z,45.90
2018-10-03T11:58:30.943Z,45.90
2018-10-03T12:01:00.176Z,45.90
2018-10-03T12:03:29.358Z,45.90
2018-10-03T12:05:59.086Z,45.90
2018-10-03T12:08:28.824Z,45.90
2018-10-03T12:10:57.941Z,45.90
2018-10-03T12:13:27.803Z,45.90
2018-10-03T12:15:57.615Z,45.80
2018-10-03T12:18:27.697Z,45.70
2018-10-03T12:20:56.793Z,45.80
2018-10-03T12:23:26.298Z,45.80
2018-10-03T12:25:55.380Z,45.70
2018-10-03T12:28:24.471Z,45.70
2018-10-03T12:30:54.267Z,45.70
2018-10-03T12:33:23.425Z,45.60
2018-10-03T12:35:52.455Z,45.60
2018-10-03T12:38:22.364Z,45.60
2018-10-03T12:40:51.532Z,45.50
2018-10-03T12:43:20.643Z,45.60
2018-10-03T12:45:49.936Z,45.60
2018-10-03T12:48:19.039Z,45.70
2018-10-03T12:50:48.212Z,45.50
2018-10-03T12:53:18.495Z,45.60
2018-10-03T12:55:47.974Z,45.70
2018-10-03T12:58:17.058Z,45.70
2018-10-03T13:00:46.374Z,45.60
2018-10-03T13:03:15.486Z,45.50
2018-10-03T13:05:45.818Z,45.60
2018-10-03T13:08:15.292Z,45.60
2018-10-03T13:10:44.410Z,45.70
2018-10-03T13:13:14.883Z,45.70
2018-10-03T13:15:44.035Z,45.60
2018-10-03T13:18:13.365Z,45.70
2018-10-03T13:20:42.557Z,45.60
2018-10-03T13:23:13.059Z,45.70
2018-10-03T13:25:42.159Z,45.60
2018-10-03T13:28:12.204Z,45.60
2018-10-03T13:30:41.361Z,45.60
2018-10-03T13:33:10.395Z,45.60
2018-10-03T13:35:39.554Z,45.60
2018-10-03T13:38:08.783Z,45.60
2018-10-03T13:40:38.837Z,45.60
2018-10-03T13:43:07.956Z,45.60
2018-10-03T13:45:37.076Z,45.60
2018-10-03T13:48:06.160Z,45.60
2018-10-03T13:50:35.720Z,45.60
2018-10-03T13:53:05.601Z,45.60
2018-10-03T13:55:34.779Z,45.60
2018-10-03T13:58:04.172Z,45.60
2018-10-03T14:00:33.362Z,45.50
2018-10-03T14:03:03.381Z,45.50
2018-10-03T14:05:33.098Z,45.70
2018-10-03T14:08:03.011Z,45.70
2018-10-03T14:10:32.272Z,45.60
2018-10-03T14:13:02.032Z,45.60
2018-10-03T14:15:31.147Z,45.60
2018-10-03T14:18:00.288Z,45.60
2018-10-03T14:20:30.103Z,45.70
2018-10-03T14:23:00.063Z,45.60
2018-10-03T14:25:29.192Z,45.60
2018-10-03T14:27:59.012Z,45.60
2018-10-03T14:30:28.146Z,45.60
2018-10-03T14:32:57.464Z,45.60
2018-10-03T14:35:26.641Z,45.60
2018-10-03T14:37:55.759Z,45.60
2018-10-03T14:40:24.926Z,45.50
2018-10-03T14:42:54.899Z,45.60
2018-10-03T14:45:24.037Z,45.60
2018-10-03T14:47:53.568Z,45.60
2018-10-03T14:50:23.300Z,45.60
2018-10-03T14:52:53.433Z,45.60
2018-10-03T14:55:22.588Z,45.60
2018-10-03T14:57:52.583Z,45.80
2018-10-03T15:00:22.464Z,45.60
2018-10-03T15:02:52.320Z,45.70
2018-10-03T15:05:22.746Z,46.00
2018-10-03T15:07:52.961Z,45.80
2018-10-03T15:10:22.382Z,45.60
2018-10-03T15:12:51.943Z,45.60
2018-10-03T15:15:21.826Z,45.70
2018-10-03T15:17:50.918Z,45.80
2018-10-03T15:20:20.573Z,45.60
2018-10-03T15:22:50.744Z,45.50
2018-10-03T15:25:19.838Z,45.70
2018-10-03T15:27:48.922Z,45.60
2018-10-03T15:30:18.107Z,45.60
2018-10-03T15:32:47.954Z,45.70
2018-10-03T15:35:17.212Z,45.60
2018-10-03T15:37:47.375Z,45.60
2018-10-03T15:40:17.699Z,45.60
2018-10-03T15:42:47.439Z,45.70
2018-10-03T15:45:17.542Z,45.60
2018-10-03T15:47:48.299Z,45.60
2018-10-03T15:50:17.922Z,45.70
2018-10-03T15:52:47.906Z,45.60
2018-10-03T15:55:17.036Z,45.60
2018-10-03T15:57:46.186Z,45.50
2018-10-03T16:00:16.156Z,45.60
2018-10-03T16:02:45.947Z,45.60
2018-10-03T16:05:16.056Z,45.50
2018-10-03T16:07:45.983Z,45.60
2018-10-03T16:10:15.101Z,45.60
2018-10-03T16:12:44.263Z,45.60
2018-10-03T16:15:13.446Z,45.60
2018-10-03T16:17:42.890Z,45.50
2018-10-03T16:20:12.060Z,45.50
2018-10-03T16:22:41.813Z,45.60
2018-10-03T16:25:11.815Z,45.60
2018-10-03T16:27:41.115Z,45.60
2018-10-03T16:30:11.746Z,45.60
2018-10-03T16:32:41.546Z,45.60
2018-10-03T16:35:10.697Z,46.00
2018-10-03T16:37:40.067Z,45.60
2018-10-03T16:40:09.612Z,45.60
2018-10-03T16:42:39.647Z,45.60
2018-10-03T16:45:08.756Z,45.70
2018-10-03T16:47:37.879Z,45.70
2018-10-03T16:50:07.912Z,45.70
2018-10-03T16:52:37.918Z,45.70
2018-10-03T16:55:07.655Z,45.70
2018-10-03T16:57:36.995Z,45.70
2018-10-03T17:00:06.099Z,45.80
2018-10-03T17:02:35.292Z,45.80
2018-10-03T17:05:05.540Z,45.70
2018-10-03T17:07:35.683Z,45.80
2018-10-03T17:10:05.607Z,45.80
2018-10-03T17:12:34.726Z,45.80
2018-10-03T17:15:03.849Z,45.80
2018-10-03T17:17:33.253Z,45.80
2018-10-03T17:20:02.801Z,45.80
2018-10-03T17:22:32.995Z,45.80
2018-10-03T17:25:02.624Z,45.80
2018-10-03T17:27:31.801Z,45.80
2018-10-03T17:30:01.443Z,45.80
2018-10-03T17:32:30.835Z,45.80
2018-10-03T17:35:00.046Z,45.90
2018-10-03T17:37:29.277Z,45.80
2018-10-03T17:39:59.671Z,45.80
2018-10-03T17:42:28.874Z,45.80
2018-10-03T17:44:57.995Z,45.80
2018-10-03T17:47:27.172Z,45.80
2018-10-03T17:49:57.155Z,45.80
2018-10-03T17:52:27.894Z,45.80
2018-10-03T17:54:57.048Z,46.00
2018-10-03T17:57:26.205Z,46.60
2018-10-03T17:59:55.627Z,45.90
2018-10-03T18:02:24.731Z,45.90
2018-10-03T18:04:54.014Z,45.80
2018-10-03T18:07:24.440Z,45.90
2018-10-03T18:09:53.629Z,45.90
2018-10-03T18:12:23.868Z,45.90
2018-10-03T18:14:53.848Z,45.80
2018-10-03T18:17:23.642Z,45.90
2018-10-03T18:19:52.832Z,45.90
2018-10-03T18:22:21.879Z,45.90
2018-10-03T18:24:51.235Z,46.20
2018-10-03T18:27:20.399Z,45.90
2018-10-03T18:29:50.093Z,45.90
2018-10-03T18:32:19.311Z,45.90
2018-10-03T18:34:50.072Z,45.90
2018-10-03T18:37:19.479Z,45.90
2018-10-03T18:39:49.966Z,45.90
2018-10-03T18:42:19.344Z,45.90
2018-10-03T18:44:48.831Z,45.90
2018-10-03T18:47:18.227Z,45.90
2018-10-03T18:49:47.631Z,45.90
2018-10-03T18:52:17.081Z,46.00
2018-10-03T18:54:46.786Z,46.00
2018-10-03T18:57:16.190Z,45.90
2018-10-03T18:59:45.569Z,45.90
2018-10-03T19:02:15.035Z,46.00
2018-10-03T19:04:45.022Z,46.00
2018-10-03T19:07:15.011Z,46.00
2018-10-03T19:09:44.437Z,46.00
2018-10-03T19:12:14.968Z,46.00
2018-10-03T19:14:44.337Z,46.00
2018-10-03T19:17:14.971Z,46.00
2018-10-03T19:19:44.480Z,46.00
2018-10-03T19:22:14.691Z,46.50
2018-10-03T19:24:44.700Z,46.10
2018-10-03T19:27:14.203Z,46.00
2018-10-03T19:29:43.553Z,46.00
2018-10-03T19:32:12.951Z,46.00
2018-10-03T19:34:42.917Z,46.00
2018-10-03T19:37:13.365Z,46.00
2018-10-03T19:39:42.702Z,46.10
2018-10-03T19:42:12.678Z,46.00
2018-10-03T19:44:42.445Z,46.80
2018-10-03T19:47:11.569Z,46.00
2018-10-03T19:49:41.469Z,46.10
2018-10-03T19:52:11.041Z,46.10
2018-10-03T19:54:41.586Z,46.20
2018-10-03T19:57:11.742Z,46.10
2018-10-03T19:59:40.882Z,46.10
2018-10-03T20:02:10.435Z,46.10
2018-10-03T20:04:39.552Z,46.10
2018-10-03T20:07:09.654Z,46.20
2018-10-03T20:09:38.792Z,46.20
2018-10-03T20:12:08.589Z,46.10
2018-10-03T20:14:38.346Z,46.10
2018-10-03T20:17:07.415Z,46.10
2018-10-03T20:19:37.314Z,46.20
2018-10-03T20:22:09.398Z,46.20
2018-10-03T20:24:39.158Z,46.20
2018-10-03T20:27:08.491Z,46.20
2018-10-03T20:29:37.704Z,46.20
2018-10-03T20:32:07.051Z,46.20
2018-10-03T20:34:36.867Z,46.20
2018-10-03T20:37:06.278Z,46.20
2018-10-03T20:39:36.139Z,46.20
2018-10-03T20:42:06.167Z,46.20
2018-10-03T20:44:36.227Z,46.20
2018-10-03T20:47:05.677Z,46.20
2018-10-03T20:49:34.957Z,46.20
2018-10-03T20:52:04.123Z,46.20
2018-10-03T20:54:33.836Z,46.20
2018-10-03T20:57:03.700Z,46.20
2018-10-03T20:59:32.830Z,46.20
2018-10-03T21:02:02.313Z,46.30
2018-10-03T21:04:31.458Z,46.20
2018-10-03T21:07:02.199Z,46.30
2018-10-03T21:09:31.621Z,46.30
2018-10-03T21:12:01.364Z,46.20
2018-10-03T21:14:33.001Z,46.30
2018-10-03T21:17:04.724Z,46.30
2018-10-03T21:19:35.857Z,46.30
2018-10-03T21:22:05.538Z,46.30
2018-10-03T21:24:35.286Z,46.30
2018-10-03T21:27:05.544Z,46.30
2018-10-03T21:29:36.214Z,46.30
2018-10-03T21:32:06.385Z,46.30
2018-10-03T21:34:36.449Z,46.40
2018-10-03T21:37:05.823Z,46.40
2018-10-03T21:39:34.921Z,46.40
2018-10-03T21:42:04.358Z,46.40
2018-10-03T21:44:34.090Z,46.40
2018-10-03T21:47:03.233Z,46.40
2018-10-03T21:49:32.427Z,46.50
2018-10-03T21:52:02.060Z,46.40
2018-10-03T21:54:32.027Z,46.40
2018-10-03T21:57:01.222Z,46.40
2018-10-03T21:59:30.328Z,46.40
2018-10-03T22:02:00.610Z,46.40
2018-10-03T22:05:54.495Z,46.40
2018-10-03T22:08:25.288Z,46.50
2018-10-03T22:10:54.467Z,46.50
2018-10-03T22:13:23.591Z,46.40
2018-10-03T22:15:52.714Z,46.40
2018-10-03T22:18:22.857Z,46.50
2018-10-03T22:20:52.661Z,46.50
2018-10-03T22:23:23.024Z,46.50
2018-10-03T22:25:52.239Z,46.50
2018-10-03T22:28:23.044Z,46.50
2018-10-03T22:30:52.607Z,46.50
2018-10-03T22:33:23.419Z,46.50
2018-10-03T22:35:52.923Z,46.50
2018-10-03T22:38:22.106Z,46.50
2018-10-03T22:40:51.830Z,46.50
2018-10-03T22:43:21.527Z,46.60
2018-10-03T22:45:50.651Z,46.50
2018-10-03T22:48:20.470Z,46.50
2018-10-03T22:50:50.244Z,46.60
2018-10-03T22:53:19.721Z,46.50
2018-10-03T22:55:49.329Z,46.50
2018-10-03T22:58:18.410Z,46.50
2018-10-03T23:00:48.537Z,46.50
2018-10-03T23:03:18.038Z,46.60
2018-10-03T23:05:47.832Z,46.60
2018-10-03T23:08:17.576Z,46.70
2018-10-03T23:10:46.673Z,46.60
2018-10-03T23:13:15.759Z,46.50
2018-10-03T23:15:45.208Z,46.50
2018-10-03T23:18:14.322Z,46.50
2018-10-03T23:20:43.531Z,46.60
2018-10-03T23:23:13.217Z,46.60
2018-10-03T23:25:43.155Z,46.60
2018-10-03T23:28:12.263Z,46.60
2018-10-03T23:30:41.769Z,46.60
2018-10-03T23:33:12.157Z,46.60
2018-10-03T23:35:41.787Z,46.60
2018-10-03T23:38:10.867Z,46.60
2018-10-03T23:40:40.646Z,46.60
2018-10-03T23:43:10.406Z,46.60
2018-10-03T23:45:39.804Z,46.60
2018-10-03T23:48:09.782Z,46.70
2018-10-03T23:50:38.867Z,46.70
2018-10-03T23:53:08.499Z,46.70
2018-10-03T23:55:37.576Z,46.70
2018-10-03T23:58:06.779Z,46.70
